sensor_id;sensor_type;location;lat;lon;timestamp;temperature;humidity
8424;DHT22;4249;49.072;9.770;2022-12-10T00:01:42;1.20;99.90
8424;DHT22;4249;49.072;9.770;2022-12-10T00:04:29;1.10;99.90
8424;DHT22;4249;49.072;9.770;2022-12-10T00:07:17;1.10;1.00
8424;DHT22;4249;49.072;9.770;2022-12-10T00:10:05;1.10;1.00
8424;DHT22;4249;49.072;9.770;2022-12-10T00:12:56;1.10;1.00
8424;DHT22;4249;49.072;9.770;2022-12-10T00:15:43;1.10;48.40
8424;DHT22;4249;49.072;9.770;2022-12-10T00:18:30;1.10;99.90
8424;DHT22;4249;49.072;9.770;2022-12-10T00:21:19;1.10;99.90
8424;DHT22;4249;49.072;9.770;2022-12-10T00:24:07;1.10;1.00
8424;DHT22;4249;49.072;9.770;2022-12-10T00:26:54;1.00;1.00
8424;DHT22;4249;49.072;9.770;2022-12-10T00:29:44;1.00;1.00
8424;DHT22;4249;49.072;9.770;2022-12-10T00:32:31;1.00;1.00
8424;DHT22;4249;49.072;9.770;2022-12-10T00:35:18;1.00;1.00
8424;DHT22;4249;49.072;9.770;2022-12-10T00:38:05;1.00;1.00
8424;DHT22;4249;49.072;9.770;2022-12-10T00:40:52;1.00;1.00
8424;DHT22;4249;49.072;9.770;2022-12-10T00:43:41;1.00;9.40
8424;DHT22;4249;49.072;9.770;2022-12-10T00:46:30;1.00;99.90
8424;DHT22;4249;49.072;9.770;2022-12-10T00:49:17;1.10;97.40
8424;DHT22;4249;49.072;9.770;2022-12-10T00:52:09;1.10;95.90
8424;DHT22;4249;49.072;9.770;2022-12-10T00:54:56;1.10;1.00
8424;DHT22;4249;49.072;9.770;2022-12-10T00:57:43;1.10;99.90
8424;DHT22;4249;49.072;9.770;2022-12-10T01:00:31;1.10;1.00
8424;DHT22;4249;49.072;9.770;2022-12-10T01:03:20;1.10;1.00
8424;DHT22;4249;49.072;9.770;2022-12-10T01:06:12;1.10;1.00
8424;DHT22;4249;49.072;9.770;2022-12-10T01:09:03;1.10;1.00
8424;DHT22;4249;49.072;9.770;2022-12-10T01:11:52;1.10;99.90
8424;DHT22;4249;49.072;9.770;2022-12-10T01:14:39;1.10;99.90
8424;DHT22;4249;49.072;9.770;2022-12-10T01:17:26;1.10;99.90
8424;DHT22;4249;49.072;9.770;2022-12-10T01:20:15;1.10;99.90
8424;DHT22;4249;49.072;9.770;2022-12-10T01:23:02;1.10;99.90
8424;DHT22;4249;49.072;9.770;2022-12-10T01:25:50;1.00;1.00
8424;DHT22;4249;49.072;9.770;2022-12-10T01:28:39;1.00;1.00
8424;DHT22;4249;49.072;9.770;2022-12-10T01:31:28;1.00;99.90
8424;DHT22;4249;49.072;9.770;2022-12-10T01:34:16;1.00;99.90
8424;DHT22;4249;49.072;9.770;2022-12-10T01:37:04;1.00;99.90
8424;DHT22;4249;49.072;9.770;2022-12-10T01:39:52;1.00;1.00
8424;DHT22;4249;49.072;9.770;2022-12-10T01:42:39;1.00;1.00
8424;DHT22;4249;49.072;9.770;2022-12-10T01:45:27;1.00;1.00
8424;DHT22;4249;49.072;9.770;2022-12-10T01:48:16;1.00;1.00
8424;DHT22;4249;49.072;9.770;2022-12-10T01:51:03;1.00;1.00
8424;DHT22;4249;49.072;9.770;2022-12-10T01:53:52;1.00;1.00
8424;DHT22;4249;49.072;9.770;2022-12-10T01:56:42;1.00;99.90
8424;DHT22;4249;49.072;9.770;2022-12-10T01:59:31;1.00;99.90
8424;DHT22;4249;49.072;9.770;2022-12-10T02:02:25;1.00;1.00
8424;DHT22;4249;49.072;9.770;2022-12-10T02:05:23;1.00;99.90
8424;DHT22;4249;49.072;9.770;2022-12-10T02:08:19;1.00;1.00
8424;DHT22;4249;49.072;9.770;2022-12-10T02:11:17;1.00;1.00
8424;DHT22;4249;49.072;9.770;2022-12-10T02:14:12;1.00;1.00
8424;DHT22;4249;49.072;9.770;2022-12-10T02:17:05;1.00;99.90
8424;DHT22;4249;49.072;9.770;2022-12-10T02:20:03;1.00;1.00
8424;DHT22;4249;49.072;9.770;2022-12-10T02:22:54;1.00;99.90
8424;DHT22;4249;49.072;9.770;2022-12-10T02:25:48;1.00;99.90
8424;DHT22;4249;49.072;9.770;2022-12-10T02:28:46;1.00;99.90
8424;DHT22;4249;49.072;9.770;2022-12-10T02:31:37;1.00;99.90
8424;DHT22;4249;49.072;9.770;2022-12-10T02:34:28;0.90;1.00
8424;DHT22;4249;49.072;9.770;2022-12-10T02:37:21;1.00;99.90
8424;DHT22;4249;49.072;9.770;2022-12-10T02:40:15;1.00;1.00
8424;DHT22;4249;49.072;9.770;2022-12-10T02:43:05;1.00;1.00
8424;DHT22;4249;49.072;9.770;2022-12-10T02:45:54;0.80;99.90
8424;DHT22;4249;49.072;9.770;2022-12-10T02:48:45;0.80;99.90
8424;DHT22;4249;49.072;9.770;2022-12-10T02:51:34;0.80;1.00
8424;DHT22;4249;49.072;9.770;2022-12-10T02:54:36;0.80;1.00
8424;DHT22;4249;49.072;9.770;2022-12-10T02:57:29;0.90;1.00
8424;DHT22;4249;49.072;9.770;2022-12-10T03:00:20;0.90;1.00
8424;DHT22;4249;49.072;9.770;2022-12-10T03:03:25;0.80;1.00
8424;DHT22;4249;49.072;9.770;2022-12-10T03:06:19;0.90;99.90
8424;DHT22;4249;49.072;9.770;2022-12-10T03:09:12;0.90;1.00
8424;DHT22;4249;49.072;9.770;2022-12-10T03:12:10;0.90;99.90
8424;DHT22;4249;49.072;9.770;2022-12-10T03:15:03;0.80;1.00
8424;DHT22;4249;49.072;9.770;2022-12-10T03:17:53;0.80;1.00
8424;DHT22;4249;49.072;9.770;2022-12-10T03:20:44;0.80;99.90
8424;DHT22;4249;49.072;9.770;2022-12-10T03:23:36;0.80;1.00
8424;DHT22;4249;49.072;9.770;2022-12-10T03:26:25;0.70;99.90
8424;DHT22;4249;49.072;9.770;2022-12-10T03:29:17;0.70;1.00
8424;DHT22;4249;49.072;9.770;2022-12-10T03:32:06;0.70;1.00
8424;DHT22;4249;49.072;9.770;2022-12-10T03:34:55;0.70;1.00
8424;DHT22;4249;49.072;9.770;2022-12-10T03:37:43;0.70;1.00
8424;DHT22;4249;49.072;9.770;2022-12-10T03:40:33;0.60;1.00
8424;DHT22;4249;49.072;9.770;2022-12-10T03:43:22;0.70;1.00
8424;DHT22;4249;49.072;9.770;2022-12-10T03:46:09;0.70;1.00
8424;DHT22;4249;49.072;9.770;2022-12-10T03:48:57;0.60;3.80
8424;DHT22;4249;49.072;9.770;2022-12-10T03:51:44;0.60;72.60
8424;DHT22;4249;49.072;9.770;2022-12-10T03:54:32;0.60;99.90
8424;DHT22;4249;49.072;9.770;2022-12-10T03:57:21;0.60;26.20
8424;DHT22;4249;49.072;9.770;2022-12-10T04:00:09;0.50;99.90
8424;DHT22;4249;49.072;9.770;2022-12-10T04:02:56;0.60;99.90
8424;DHT22;4249;49.072;9.770;2022-12-10T04:05:44;0.50;99.90
8424;DHT22;4249;49.072;9.770;2022-12-10T04:08:31;0.50;99.90
8424;DHT22;4249;49.072;9.770;2022-12-10T04:11:19;0.50;99.90
8424;DHT22;4249;49.072;9.770;2022-12-10T04:14:10;0.40;99.90
8424;DHT22;4249;49.072;9.770;2022-12-10T04:17:16;0.40;99.90
8424;DHT22;4249;49.072;9.770;2022-12-10T04:20:04;0.40;99.90
8424;DHT22;4249;49.072;9.770;2022-12-10T04:23:12;0.30;1.00
8424;DHT22;4249;49.072;9.770;2022-12-10T04:26:17;0.30;1.00
8424;DHT22;4249;49.072;9.770;2022-12-10T04:29:24;0.40;99.90
8424;DHT22;4249;49.072;9.770;2022-12-10T04:32:12;0.40;99.90
8424;DHT22;4249;49.072;9.770;2022-12-10T04:34:59;0.40;13.20
8424;DHT22;4249;49.072;9.770;2022-12-10T04:37:46;0.20;24.30
8424;DHT22;4249;49.072;9.770;2022-12-10T04:40:36;0.10;99.90
8424;DHT22;4249;49.072;9.770;2022-12-10T04:43:24;0.00;1.00
8424;DHT22;4249;49.072;9.770;2022-12-10T04:46:14;0.00;1.00
8424;DHT22;4249;49.072;9.770;2022-12-10T04:49:02;0.00;1.00
8424;DHT22;4249;49.072;9.770;2022-12-10T04:51:50;0.00;1.00
8424;DHT22;4249;49.072;9.770;2022-12-10T04:54:38;0.00;1.00
8424;DHT22;4249;49.072;9.770;2022-12-10T04:57:25;0.10;1.00
8424;DHT22;4249;49.072;9.770;2022-12-10T05:00:13;0.10;1.00
8424;DHT22;4249;49.072;9.770;2022-12-10T05:03:02;0.20;1.00
8424;DHT22;4249;49.072;9.770;2022-12-10T05:05:51;0.20;1.00
8424;DHT22;4249;49.072;9.770;2022-12-10T05:08:39;0.20;1.00
8424;DHT22;4249;49.072;9.770;2022-12-10T05:11:29;0.20;1.00
8424;DHT22;4249;49.072;9.770;2022-12-10T05:14:17;0.20;1.00
8424;DHT22;4249;49.072;9.770;2022-12-10T05:17:04;0.30;1.00
8424;DHT22;4249;49.072;9.770;2022-12-10T05:19:53;0.30;1.00
8424;DHT22;4249;49.072;9.770;2022-12-10T05:22:40;0.30;1.00
8424;DHT22;4249;49.072;9.770;2022-12-10T05:25:45;0.30;10.10
8424;DHT22;4249;49.072;9.770;2022-12-10T05:28:41;0.30;1.00
8424;DHT22;4249;49.072;9.770;2022-12-10T05:31:29;0.30;1.00
8424;DHT22;4249;49.072;9.770;2022-12-10T05:34:16;0.30;15.70
8424;DHT22;4249;49.072;9.770;2022-12-10T05:37:05;0.30;1.00
8424;DHT22;4249;49.072;9.770;2022-12-10T05:39:52;0.30;1.00
8424;DHT22;4249;49.072;9.770;2022-12-10T05:42:39;0.40;1.00
8424;DHT22;4249;49.072;9.770;2022-12-10T05:45:26;0.40;1.00
8424;DHT22;4249;49.072;9.770;2022-12-10T05:48:15;0.40;1.00
8424;DHT22;4249;49.072;9.770;2022-12-10T05:51:03;0.40;1.00
8424;DHT22;4249;49.072;9.770;2022-12-10T05:53:53;0.40;1.00
8424;DHT22;4249;49.072;9.770;2022-12-10T05:56:40;0.40;1.00
8424;DHT22;4249;49.072;9.770;2022-12-10T05:59:27;0.30;1.00
8424;DHT22;4249;49.072;9.770;2022-12-10T06:02:15;0.30;1.00
8424;DHT22;4249;49.072;9.770;2022-12-10T06:05:02;0.30;1.00
8424;DHT22;4249;49.072;9.770;2022-12-10T06:07:49;0.30;1.00
8424;DHT22;4249;49.072;9.770;2022-12-10T06:10:38;0.30;1.00
8424;DHT22;4249;49.072;9.770;2022-12-10T06:13:25;0.30;1.00
8424;DHT22;4249;49.072;9.770;2022-12-10T06:16:15;0.20;1.00
8424;DHT22;4249;49.072;9.770;2022-12-10T06:19:02;0.30;1.00
8424;DHT22;4249;49.072;9.770;2022-12-10T06:21:49;0.30;1.00
8424;DHT22;4249;49.072;9.770;2022-12-10T06:24:36;0.20;1.00
8424;DHT22;4249;49.072;9.770;2022-12-10T06:27:25;0.10;1.00
8424;DHT22;4249;49.072;9.770;2022-12-10T06:30:12;0.10;1.00
8424;DHT22;4249;49.072;9.770;2022-12-10T06:33:00;0.10;14.00
8424;DHT22;4249;49.072;9.770;2022-12-10T06:35:47;0.10;1.00
8424;DHT22;4249;49.072;9.770;2022-12-10T06:38:34;0.10;13.00
8424;DHT22;4249;49.072;9.770;2022-12-10T06:41:22;0.10;72.50
8424;DHT22;4249;49.072;9.770;2022-12-10T06:44:10;0.10;88.10
8424;DHT22;4249;49.072;9.770;2022-12-10T06:46:58;0.10;6.70
8424;DHT22;4249;49.072;9.770;2022-12-10T06:49:45;0.10;1.00
8424;DHT22;4249;49.072;9.770;2022-12-10T06:52:32;0.20;1.00
8424;DHT22;4249;49.072;9.770;2022-12-10T06:55:20;0.20;1.00
8424;DHT22;4249;49.072;9.770;2022-12-10T06:58:08;0.10;1.00
8424;DHT22;4249;49.072;9.770;2022-12-10T07:01:02;0.10;1.00
8424;DHT22;4249;49.072;9.770;2022-12-10T07:03:50;0.10;1.00
8424;DHT22;4249;49.072;9.770;2022-12-10T07:06:38;0.10;75.50
8424;DHT22;4249;49.072;9.770;2022-12-10T07:09:25;0.20;16.20
8424;DHT22;4249;49.072;9.770;2022-12-10T07:12:12;0.10;1.00
8424;DHT22;4249;49.072;9.770;2022-12-10T07:14:59;0.10;1.00
8424;DHT22;4249;49.072;9.770;2022-12-10T07:17:47;0.10;22.50
8424;DHT22;4249;49.072;9.770;2022-12-10T07:20:35;0.10;1.00
8424;DHT22;4249;49.072;9.770;2022-12-10T07:23:22;0.10;1.00
8424;DHT22;4249;49.072;9.770;2022-12-10T07:26:09;0.10;1.00
8424;DHT22;4249;49.072;9.770;2022-12-10T07:28:59;0.10;1.00
8424;DHT22;4249;49.072;9.770;2022-12-10T07:31:48;0.10;47.60
8424;DHT22;4249;49.072;9.770;2022-12-10T07:34:37;0.20;49.80
8424;DHT22;4249;49.072;9.770;2022-12-10T07:37:24;0.20;1.00
8424;DHT22;4249;49.072;9.770;2022-12-10T07:40:11;0.30;1.00
8424;DHT22;4249;49.072;9.770;2022-12-10T07:42:59;0.30;1.00
8424;DHT22;4249;49.072;9.770;2022-12-10T07:45:46;0.30;1.00
8424;DHT22;4249;49.072;9.770;2022-12-10T07:48:34;0.30;1.00
8424;DHT22;4249;49.072;9.770;2022-12-10T07:51:23;0.30;1.00
8424;DHT22;4249;49.072;9.770;2022-12-10T07:54:10;0.40;1.00
8424;DHT22;4249;49.072;9.770;2022-12-10T07:56:57;0.40;1.00
8424;DHT22;4249;49.072;9.770;2022-12-10T07:59:45;0.40;1.00
8424;DHT22;4249;49.072;9.770;2022-12-10T08:02:32;0.40;1.00
8424;DHT22;4249;49.072;9.770;2022-12-10T08:05:19;0.40;1.00
8424;DHT22;4249;49.072;9.770;2022-12-10T08:08:07;0.40;1.00
8424;DHT22;4249;49.072;9.770;2022-12-10T08:10:55;0.50;1.00
8424;DHT22;4249;49.072;9.770;2022-12-10T08:13:42;0.60;1.00
8424;DHT22;4249;49.072;9.770;2022-12-10T08:16:30;0.60;1.00
8424;DHT22;4249;49.072;9.770;2022-12-10T08:19:18;0.70;1.00
8424;DHT22;4249;49.072;9.770;2022-12-10T08:22:05;0.80;1.00
8424;DHT22;4249;49.072;9.770;2022-12-10T08:24:53;0.90;99.90
8424;DHT22;4249;49.072;9.770;2022-12-10T08:27:41;1.00;99.90
8424;DHT22;4249;49.072;9.770;2022-12-10T08:30:28;1.00;99.90
8424;DHT22;4249;49.072;9.770;2022-12-10T08:33:15;1.10;99.90
8424;DHT22;4249;49.072;9.770;2022-12-10T08:36:03;1.10;96.10
8424;DHT22;4249;49.072;9.770;2022-12-10T08:38:51;1.20;20.40
8424;DHT22;4249;49.072;9.770;2022-12-10T08:41:39;1.30;1.00
8424;DHT22;4249;49.072;9.770;2022-12-10T08:44:26;1.30;99.90
8424;DHT22;4249;49.072;9.770;2022-12-10T08:47:13;1.30;99.90
8424;DHT22;4249;49.072;9.770;2022-12-10T08:50:01;1.30;1.00
8424;DHT22;4249;49.072;9.770;2022-12-10T08:52:48;1.30;65.70
8424;DHT22;4249;49.072;9.770;2022-12-10T08:55:38;1.20;1.00
8424;DHT22;4249;49.072;9.770;2022-12-10T08:58:27;1.20;1.00
8424;DHT22;4249;49.072;9.770;2022-12-10T09:01:15;1.20;1.00
8424;DHT22;4249;49.072;9.770;2022-12-10T09:04:02;1.20;1.00
8424;DHT22;4249;49.072;9.770;2022-12-10T09:06:50;1.20;1.00
8424;DHT22;4249;49.072;9.770;2022-12-10T09:09:38;1.30;1.00
8424;DHT22;4249;49.072;9.770;2022-12-10T09:12:25;1.20;99.90
8424;DHT22;4249;49.072;9.770;2022-12-10T09:15:14;1.30;14.30
8424;DHT22;4249;49.072;9.770;2022-12-10T09:18:01;1.30;1.00
8424;DHT22;4249;49.072;9.770;2022-12-10T09:20:48;1.40;88.50
8424;DHT22;4249;49.072;9.770;2022-12-10T09:23:36;1.40;1.00
8424;DHT22;4249;49.072;9.770;2022-12-10T09:26:23;1.50;1.00
8424;DHT22;4249;49.072;9.770;2022-12-10T09:29:10;1.60;1.00
8424;DHT22;4249;49.072;9.770;2022-12-10T09:31:59;1.80;1.00
8424;DHT22;4249;49.072;9.770;2022-12-10T09:34:46;1.90;1.00
8424;DHT22;4249;49.072;9.770;2022-12-10T09:37:33;2.00;1.00
8424;DHT22;4249;49.072;9.770;2022-12-10T09:40:27;2.00;1.00
8424;DHT22;4249;49.072;9.770;2022-12-10T09:43:19;1.80;99.90
8424;DHT22;4249;49.072;9.770;2022-12-10T09:46:15;1.80;1.00
8424;DHT22;4249;49.072;9.770;2022-12-10T09:49:17;1.90;99.90
8424;DHT22;4249;49.072;9.770;2022-12-10T09:52:13;1.90;1.00
8424;DHT22;4249;49.072;9.770;2022-12-10T09:55:02;1.90;99.90
8424;DHT22;4249;49.072;9.770;2022-12-10T09:57:51;2.00;99.90
8424;DHT22;4249;49.072;9.770;2022-12-10T10:00:41;2.00;99.90
8424;DHT22;4249;49.072;9.770;2022-12-10T10:03:32;2.10;99.90
8424;DHT22;4249;49.072;9.770;2022-12-10T10:06:23;2.00;99.90
8424;DHT22;4249;49.072;9.770;2022-12-10T10:09:14;2.10;99.90
8424;DHT22;4249;49.072;9.770;2022-12-10T10:12:02;2.20;99.90
8424;DHT22;4249;49.072;9.770;2022-12-10T10:14:49;2.20;1.00
8424;DHT22;4249;49.072;9.770;2022-12-10T10:17:37;2.30;1.00
8424;DHT22;4249;49.072;9.770;2022-12-10T10:20:25;2.30;1.00
8424;DHT22;4249;49.072;9.770;2022-12-10T10:23:15;2.30;1.00
8424;DHT22;4249;49.072;9.770;2022-12-10T10:26:02;2.20;1.00
8424;DHT22;4249;49.072;9.770;2022-12-10T10:28:51;2.30;1.00
8424;DHT22;4249;49.072;9.770;2022-12-10T10:31:42;2.40;1.00
8424;DHT22;4249;49.072;9.770;2022-12-10T10:34:29;2.40;1.00
8424;DHT22;4249;49.072;9.770;2022-12-10T10:37:26;2.50;1.00
8424;DHT22;4249;49.072;9.770;2022-12-10T10:40:24;2.60;1.00
8424;DHT22;4249;49.072;9.770;2022-12-10T10:43:16;2.70;1.00
8424;DHT22;4249;49.072;9.770;2022-12-10T10:46:10;2.70;1.00
8424;DHT22;4249;49.072;9.770;2022-12-10T10:49:14;2.70;1.00
8424;DHT22;4249;49.072;9.770;2022-12-10T10:52:05;2.50;1.00
8424;DHT22;4249;49.072;9.770;2022-12-10T10:54:53;2.50;1.00
8424;DHT22;4249;49.072;9.770;2022-12-10T10:57:41;2.50;1.00
8424;DHT22;4249;49.072;9.770;2022-12-10T11:00:28;2.60;1.00
8424;DHT22;4249;49.072;9.770;2022-12-10T11:03:16;2.50;1.00
8424;DHT22;4249;49.072;9.770;2022-12-10T11:06:06;2.50;1.00
8424;DHT22;4249;49.072;9.770;2022-12-10T11:08:57;2.50;1.00
8424;DHT22;4249;49.072;9.770;2022-12-10T11:11:50;2.50;1.00
8424;DHT22;4249;49.072;9.770;2022-12-10T11:14:40;2.40;1.00
8424;DHT22;4249;49.072;9.770;2022-12-10T11:17:30;2.40;1.00
8424;DHT22;4249;49.072;9.770;2022-12-10T11:20:19;2.40;1.00
8424;DHT22;4249;49.072;9.770;2022-12-10T11:23:10;2.40;1.00
8424;DHT22;4249;49.072;9.770;2022-12-10T11:26:08;2.40;1.00
8424;DHT22;4249;49.072;9.770;2022-12-10T11:29:05;2.40;1.00
8424;DHT22;4249;49.072;9.770;2022-12-10T11:32:05;2.00;1.00
8424;DHT22;4249;49.072;9.770;2022-12-10T11:35:02;1.90;1.00
8424;DHT22;4249;49.072;9.770;2022-12-10T11:38:00;2.00;1.00
8424;DHT22;4249;49.072;9.770;2022-12-10T11:40:57;2.10;1.00
8424;DHT22;4249;49.072;9.770;2022-12-10T11:43:59;2.10;1.00
8424;DHT22;4249;49.072;9.770;2022-12-10T11:47:16;2.20;1.00
8424;DHT22;4249;49.072;9.770;2022-12-10T11:50:14;2.10;1.00
8424;DHT22;4249;49.072;9.770;2022-12-10T11:56:33;2.00;1.00
8424;DHT22;4249;49.072;9.770;2022-12-10T11:59:26;2.00;1.00
8424;DHT22;4249;49.072;9.770;2022-12-10T12:02:35;2.00;1.00
8424;DHT22;4249;49.072;9.770;2022-12-10T12:05:46;1.90;1.00
8424;DHT22;4249;49.072;9.770;2022-12-10T12:08:43;1.80;1.00
8424;DHT22;4249;49.072;9.770;2022-12-10T12:11:47;1.70;1.00
8424;DHT22;4249;49.072;9.770;2022-12-10T12:14:40;1.70;1.00
8424;DHT22;4249;49.072;9.770;2022-12-10T12:17:34;1.80;1.00
8424;DHT22;4249;49.072;9.770;2022-12-10T12:20:29;1.90;1.00
8424;DHT22;4249;49.072;9.770;2022-12-10T12:23:20;1.80;1.00
8424;DHT22;4249;49.072;9.770;2022-12-10T12:26:13;1.90;1.00
8424;DHT22;4249;49.072;9.770;2022-12-10T12:29:11;1.90;1.00
8424;DHT22;4249;49.072;9.770;2022-12-10T12:32:03;2.00;1.00
8424;DHT22;4249;49.072;9.770;2022-12-10T12:34:58;2.10;1.00
8424;DHT22;4249;49.072;9.770;2022-12-10T12:37:49;2.10;1.00
8424;DHT22;4249;49.072;9.770;2022-12-10T12:40:43;2.30;1.00
8424;DHT22;4249;49.072;9.770;2022-12-10T12:43:39;2.30;1.00
8424;DHT22;4249;49.072;9.770;2022-12-10T12:46:41;2.40;1.00
8424;DHT22;4249;49.072;9.770;2022-12-10T12:49:32;2.20;1.00
8424;DHT22;4249;49.072;9.770;2022-12-10T12:52:29;2.00;1.00
8424;DHT22;4249;49.072;9.770;2022-12-10T12:55:22;2.20;1.00
8424;DHT22;4249;49.072;9.770;2022-12-10T12:58:16;2.20;1.00
8424;DHT22;4249;49.072;9.770;2022-12-10T13:01:17;2.20;1.00
8424;DHT22;4249;49.072;9.770;2022-12-10T13:04:06;2.20;1.00
8424;DHT22;4249;49.072;9.770;2022-12-10T13:10:24;2.20;1.00
8424;DHT22;4249;49.072;9.770;2022-12-10T13:13:31;2.20;1.00
8424;DHT22;4249;49.072;9.770;2022-12-10T13:16:36;2.20;1.00
8424;DHT22;4249;49.072;9.770;2022-12-10T13:19:32;2.10;1.00
8424;DHT22;4249;49.072;9.770;2022-12-10T13:22:42;1.90;1.00
8424;DHT22;4249;49.072;9.770;2022-12-10T13:25:55;1.90;1.00
8424;DHT22;4249;49.072;9.770;2022-12-10T13:28:50;2.00;1.00
8424;DHT22;4249;49.072;9.770;2022-12-10T13:31:39;1.80;1.00
8424;DHT22;4249;49.072;9.770;2022-12-10T13:34:34;1.80;1.00
8424;DHT22;4249;49.072;9.770;2022-12-10T13:37:30;1.80;1.00
8424;DHT22;4249;49.072;9.770;2022-12-10T13:40:26;1.80;1.00
8424;DHT22;4249;49.072;9.770;2022-12-10T13:43:38;1.70;1.00
8424;DHT22;4249;49.072;9.770;2022-12-10T13:46:25;1.70;1.00
8424;DHT22;4249;49.072;9.770;2022-12-10T13:48:54;1.70;1.00
8424;DHT22;4249;49.072;9.770;2022-12-10T13:51:37;1.70;1.00
8424;DHT22;4249;49.072;9.770;2022-12-10T13:57:15;1.80;1.00
8424;DHT22;4249;49.072;9.770;2022-12-10T13:59:52;1.80;1.00
8424;DHT22;4249;49.072;9.770;2022-12-10T14:02:37;1.90;1.00
8424;DHT22;4249;49.072;9.770;2022-12-10T14:05:19;1.90;1.00
8424;DHT22;4249;49.072;9.770;2022-12-10T14:07:53;1.90;1.00
8424;DHT22;4249;49.072;9.770;2022-12-10T14:10:24;1.80;1.00
8424;DHT22;4249;49.072;9.770;2022-12-10T14:12:53;1.80;1.00
8424;DHT22;4249;49.072;9.770;2022-12-10T14:15:23;1.80;1.00
8424;DHT22;4249;49.072;9.770;2022-12-10T14:17:56;1.80;1.00
8424;DHT22;4249;49.072;9.770;2022-12-10T14:20:25;1.80;1.00
8424;DHT22;4249;49.072;9.770;2022-12-10T14:22:54;1.90;1.00
8424;DHT22;4249;49.072;9.770;2022-12-10T14:25:44;1.90;1.00
8424;DHT22;4249;49.072;9.770;2022-12-10T14:28:12;1.90;1.00
8424;DHT22;4249;49.072;9.770;2022-12-10T14:30:45;1.80;1.00
8424;DHT22;4249;49.072;9.770;2022-12-10T14:33:15;1.90;1.00
8424;DHT22;4249;49.072;9.770;2022-12-10T14:35:46;1.90;1.00
8424;DHT22;4249;49.072;9.770;2022-12-10T14:38:19;1.90;1.00
8424;DHT22;4249;49.072;9.770;2022-12-10T14:40:47;1.90;1.00
8424;DHT22;4249;49.072;9.770;2022-12-10T14:43:18;1.80;1.00
8424;DHT22;4249;49.072;9.770;2022-12-10T14:45:49;1.80;1.00
8424;DHT22;4249;49.072;9.770;2022-12-10T14:48:18;1.80;1.00
8424;DHT22;4249;49.072;9.770;2022-12-10T14:50:45;1.80;1.00
8424;DHT22;4249;49.072;9.770;2022-12-10T14:53:15;1.80;1.00
8424;DHT22;4249;49.072;9.770;2022-12-10T14:55:43;1.80;1.00
8424;DHT22;4249;49.072;9.770;2022-12-10T14:58:16;1.70;1.00
8424;DHT22;4249;49.072;9.770;2022-12-10T15:00:44;1.70;1.00
8424;DHT22;4249;49.072;9.770;2022-12-10T15:03:23;1.70;1.00
8424;DHT22;4249;49.072;9.770;2022-12-10T15:05:55;1.70;1.00
8424;DHT22;4249;49.072;9.770;2022-12-10T15:08:23;1.60;1.00
8424;DHT22;4249;49.072;9.770;2022-12-10T15:10:54;1.50;1.00
8424;DHT22;4249;49.072;9.770;2022-12-10T15:13:24;1.50;1.00
8424;DHT22;4249;49.072;9.770;2022-12-10T15:15:55;1.50;1.00
8424;DHT22;4249;49.072;9.770;2022-12-10T15:18:27;1.40;1.00
8424;DHT22;4249;49.072;9.770;2022-12-10T15:21:05;1.40;1.00
8424;DHT22;4249;49.072;9.770;2022-12-10T15:23:34;1.40;1.00
8424;DHT22;4249;49.072;9.770;2022-12-10T15:26:22;1.30;1.00
8424;DHT22;4249;49.072;9.770;2022-12-10T15:29:32;1.30;1.00
8424;DHT22;4249;49.072;9.770;2022-12-10T15:32:22;1.30;11.10
8424;DHT22;4249;49.072;9.770;2022-12-10T15:35:14;1.20;99.90
8424;DHT22;4249;49.072;9.770;2022-12-10T15:38:02;1.20;99.90
8424;DHT22;4249;49.072;9.770;2022-12-10T15:40:49;1.20;99.90
8424;DHT22;4249;49.072;9.770;2022-12-10T15:43:51;1.20;99.90
8424;DHT22;4249;49.072;9.770;2022-12-10T15:46:48;1.10;99.90
8424;DHT22;4249;49.072;9.770;2022-12-10T15:49:37;1.00;99.90
8424;DHT22;4249;49.072;9.770;2022-12-10T15:52:27;1.00;46.40
8424;DHT22;4249;49.072;9.770;2022-12-10T15:55:14;1.00;1.00
8424;DHT22;4249;49.072;9.770;2022-12-10T15:58:07;0.90;34.40
8424;DHT22;4249;49.072;9.770;2022-12-10T16:00:55;0.90;99.90
8424;DHT22;4249;49.072;9.770;2022-12-10T16:03:42;0.90;99.90
8424;DHT22;4249;49.072;9.770;2022-12-10T16:06:30;0.90;99.90
8424;DHT22;4249;49.072;9.770;2022-12-10T16:09:20;0.90;99.90
8424;DHT22;4249;49.072;9.770;2022-12-10T16:12:08;0.90;99.90
8424;DHT22;4249;49.072;9.770;2022-12-10T16:14:57;1.00;99.90
8424;DHT22;4249;49.072;9.770;2022-12-10T16:17:45;0.90;99.90
8424;DHT22;4249;49.072;9.770;2022-12-10T16:20:33;0.90;99.90
8424;DHT22;4249;49.072;9.770;2022-12-10T16:23:20;1.00;99.90
8424;DHT22;4249;49.072;9.770;2022-12-10T16:26:15;1.00;99.90
8424;DHT22;4249;49.072;9.770;2022-12-10T16:29:03;0.90;99.90
8424;DHT22;4249;49.072;9.770;2022-12-10T16:31:51;0.80;99.90
8424;DHT22;4249;49.072;9.770;2022-12-10T16:34:38;0.90;99.90
8424;DHT22;4249;49.072;9.770;2022-12-10T16:37:26;0.90;99.90
8424;DHT22;4249;49.072;9.770;2022-12-10T16:40:15;0.80;70.20
8424;DHT22;4249;49.072;9.770;2022-12-10T16:43:05;0.80;99.90
8424;DHT22;4249;49.072;9.770;2022-12-10T16:45:53;0.90;1.00
8424;DHT22;4249;49.072;9.770;2022-12-10T16:48:41;0.80;1.00
8424;DHT22;4249;49.072;9.770;2022-12-10T16:51:29;0.80;1.00
8424;DHT22;4249;49.072;9.770;2022-12-10T16:54:17;0.80;1.00
8424;DHT22;4249;49.072;9.770;2022-12-10T16:57:07;0.90;1.00
8424;DHT22;4249;49.072;9.770;2022-12-10T16:59:56;0.90;1.00
8424;DHT22;4249;49.072;9.770;2022-12-10T17:02:44;0.90;1.00
8424;DHT22;4249;49.072;9.770;2022-12-10T17:05:33;0.90;1.00
8424;DHT22;4249;49.072;9.770;2022-12-10T17:08:23;0.90;1.00
8424;DHT22;4249;49.072;9.770;2022-12-10T17:11:17;1.00;1.00
8424;DHT22;4249;49.072;9.770;2022-12-10T17:14:23;0.90;1.00
8424;DHT22;4249;49.072;9.770;2022-12-10T17:17:13;0.90;1.00
8424;DHT22;4249;49.072;9.770;2022-12-10T17:20:01;0.90;1.00
8424;DHT22;4249;49.072;9.770;2022-12-10T17:22:49;0.80;1.00
8424;DHT22;4249;49.072;9.770;2022-12-10T17:25:37;0.80;1.00
8424;DHT22;4249;49.072;9.770;2022-12-10T17:28:25;0.80;1.00
8424;DHT22;4249;49.072;9.770;2022-12-10T17:31:12;0.80;1.00
8424;DHT22;4249;49.072;9.770;2022-12-10T17:34:01;0.70;1.00
8424;DHT22;4249;49.072;9.770;2022-12-10T17:36:48;0.70;1.00
8424;DHT22;4249;49.072;9.770;2022-12-10T17:39:36;0.60;1.00
8424;DHT22;4249;49.072;9.770;2022-12-10T17:42:23;0.60;19.50
8424;DHT22;4249;49.072;9.770;2022-12-10T17:45:12;0.60;99.90
8424;DHT22;4249;49.072;9.770;2022-12-10T17:47:59;0.60;99.90
8424;DHT22;4249;49.072;9.770;2022-12-10T17:50:48;0.60;99.90
8424;DHT22;4249;49.072;9.770;2022-12-10T17:53:35;0.60;99.90
8424;DHT22;4249;49.072;9.770;2022-12-10T17:56:24;0.60;99.90
8424;DHT22;4249;49.072;9.770;2022-12-10T17:59:14;0.60;99.90
8424;DHT22;4249;49.072;9.770;2022-12-10T18:02:01;0.70;99.90
8424;DHT22;4249;49.072;9.770;2022-12-10T18:04:48;0.70;99.90
8424;DHT22;4249;49.072;9.770;2022-12-10T18:07:37;0.70;99.90
8424;DHT22;4249;49.072;9.770;2022-12-10T18:10:26;0.80;99.90
8424;DHT22;4249;49.072;9.770;2022-12-10T18:13:15;0.80;92.90
8424;DHT22;4249;49.072;9.770;2022-12-10T18:16:03;0.80;1.00
8424;DHT22;4249;49.072;9.770;2022-12-10T18:18:53;0.80;1.00
8424;DHT22;4249;49.072;9.770;2022-12-10T18:21:42;0.80;1.00
8424;DHT22;4249;49.072;9.770;2022-12-10T18:24:30;0.80;1.00
8424;DHT22;4249;49.072;9.770;2022-12-10T18:27:18;0.80;1.00
8424;DHT22;4249;49.072;9.770;2022-12-10T18:30:06;0.80;1.00
8424;DHT22;4249;49.072;9.770;2022-12-10T18:32:54;0.80;1.00
8424;DHT22;4249;49.072;9.770;2022-12-10T18:35:42;0.80;1.00
8424;DHT22;4249;49.072;9.770;2022-12-10T18:38:32;0.80;1.00
8424;DHT22;4249;49.072;9.770;2022-12-10T18:41:21;0.80;1.00
8424;DHT22;4249;49.072;9.770;2022-12-10T18:44:09;0.70;1.00
8424;DHT22;4249;49.072;9.770;2022-12-10T18:46:58;0.70;1.00
8424;DHT22;4249;49.072;9.770;2022-12-10T18:49:45;0.60;1.00
8424;DHT22;4249;49.072;9.770;2022-12-10T18:52:32;0.70;1.00
8424;DHT22;4249;49.072;9.770;2022-12-10T18:55:22;0.60;1.00
8424;DHT22;4249;49.072;9.770;2022-12-10T18:58:11;0.60;1.00
8424;DHT22;4249;49.072;9.770;2022-12-10T19:00:59;0.60;1.00
8424;DHT22;4249;49.072;9.770;2022-12-10T19:03:46;0.60;86.20